createdAt,value
2018-09-24T00:00:01.645Z,90.53
2018-09-24T00:02:31.179Z,90.38
2018-09-24T00:05:01.249Z,90.18
2018-09-24T00:07:30.596Z,90.22
2018-09-24T00:10:01.509Z,89.94
2018-09-24T00:12:31.127Z,89.61
2018-09-24T00:15:00.974Z,89.38
2018-09-24T00:17:30.309Z,89.51
2018-09-24T00:20:00.533Z,89.78
2018-09-24T00:22:29.939Z,90.26
2018-09-24T00:25:02.499Z,90.32
2018-09-24T00:27:31.991Z,90.31
2018-09-24T00:30:02.946Z,90.39
2018-09-24T00:32:32.066Z,90.48
2018-09-24T00:35:01.812Z,90.38
2018-09-24T00:37:31.361Z,90.72
2018-09-24T00:40:01.022Z,90.60
2018-09-24T00:42:31.708Z,90.69
2018-09-24T00:45:02.455Z,91.44
2018-09-24T00:47:33.102Z,91.32
2018-09-24T00:50:03.632Z,90.92
2018-09-24T00:52:37.841Z,91.26
2018-09-24T00:55:08.388Z,91.14
2018-09-24T00:57:37.484Z,90.80
2018-09-24T01:00:08.282Z,90.53
2018-09-24T01:02:37.712Z,90.48
2018-09-24T01:05:11.056Z,90.36
2018-09-24T01:07:39.983Z,90.37
2018-09-24T01:10:10.058Z,90.00
2018-09-24T01:12:39.868Z,90.15
2018-09-24T01:15:09.689Z,90.60
2018-09-24T01:17:39.948Z,90.86
2018-09-24T01:20:11.789Z,90.57
2018-09-24T01:22:42.197Z,90.44
2018-09-24T01:25:13.652Z,89.96
2018-09-24T01:27:43.684Z,89.81
2018-09-24T01:30:13.651Z,89.58
2018-09-24T01:32:43.659Z,89.74
2018-09-24T01:35:13.476Z,89.70
2018-09-24T01:37:43.156Z,89.30
2018-09-24T01:40:13.309Z,89.26
2018-09-24T01:42:42.109Z,88.98
2018-09-24T01:45:12.049Z,88.99
2018-09-24T01:47:42.434Z,88.78
2018-09-24T01:50:11.549Z,88.92
2018-09-24T01:52:41.769Z,88.75
2018-09-24T01:55:12.661Z,88.72
2018-09-24T01:57:42.112Z,88.74
2018-09-24T02:00:12.365Z,88.56
2018-09-24T02:02:42.499Z,88.41
2018-09-24T02:05:16.504Z,87.99
2018-09-24T02:07:47.761Z,88.38
2018-09-24T02:10:24.104Z,88.49
2018-09-24T02:12:55.526Z,88.53
2018-09-24T02:15:27.125Z,88.58
2018-09-24T02:17:56.825Z,88.50
2018-09-24T02:20:28.054Z,88.54
2018-09-24T02:22:57.588Z,88.58
2018-09-24T02:25:28.015Z,89.91
2018-09-24T02:27:59.193Z,89.99
2018-09-24T02:30:28.232Z,89.78
2018-09-24T02:32:58.069Z,89.25
2018-09-24T02:35:27.884Z,88.79
2018-09-24T02:37:58.056Z,88.97
2018-09-24T02:40:29.231Z,89.12
2018-09-24T02:42:58.476Z,88.87
2018-09-24T02:45:29.776Z,88.75
2018-09-24T02:48:00.152Z,88.83
2018-09-24T02:50:36.992Z,89.02
2018-09-24T02:53:08.296Z,88.65
2018-09-24T02:55:37.917Z,88.62
2018-09-24T02:58:08.491Z,88.93
2018-09-24T03:00:40.015Z,88.75
2018-09-24T03:03:12.093Z,89.25
2018-09-24T03:05:42.206Z,89.31
2018-09-24T03:08:13.353Z,89.65
2018-09-24T03:10:45.241Z,89.28
2018-09-24T03:13:14.101Z,89.48
2018-09-24T03:15:45.904Z,89.68
2018-09-24T03:18:17.407Z,89.49
2018-09-24T03:20:47.241Z,89.42
2018-09-24T03:23:17.845Z,89.50
2018-09-24T03:25:48.609Z,90.03
2018-09-24T03:28:20.044Z,89.96
2018-09-24T03:30:50.842Z,89.78
2018-09-24T03:33:21.265Z,89.18
2018-09-24T03:35:52.335Z,88.95
2018-09-24T03:38:24.087Z,88.72
2018-09-24T03:40:54.814Z,88.99
2018-09-24T03:43:25.401Z,89.16
2018-09-24T03:45:57.053Z,88.78
2018-09-24T03:48:27.941Z,89.00
2018-09-24T03:50:58.690Z,89.40
2018-09-24T03:53:27.557Z,89.23
2018-09-24T03:55:58.269Z,89.42
2018-09-24T03:58:28.430Z,89.39
2018-09-24T04:00:58.392Z,89.09
2018-09-24T04:03:27.576Z,89.02
2018-09-24T04:06:03.540Z,88.86
2018-09-24T04:08:39.508Z,88.80
2018-09-24T04:11:15.845Z,89.17
2018-09-24T04:13:51.419Z,89.27
2018-09-24T04:16:26.409Z,89.22
2018-09-24T04:19:01.429Z,89.14
2018-09-24T04:21:37.489Z,88.93
2018-09-24T04:24:13.750Z,89.35
2018-09-24T04:26:51.269Z,89.37
2018-09-24T04:29:28.724Z,89.46
2018-09-24T04:32:03.987Z,89.54
2018-09-24T04:34:39.261Z,89.63
2018-09-24T04:37:15.637Z,89.71
2018-09-24T04:39:50.817Z,89.41
2018-09-24T04:42:25.807Z,89.59
2018-09-24T04:45:04.789Z,89.15
2018-09-24T04:47:38.764Z,89.71
2018-09-24T04:50:13.592Z,90.07
2018-09-24T04:52:48.730Z,89.86
2018-09-24T04:55:25.931Z,90.04
2018-09-24T04:58:01.086Z,89.81
2018-09-24T05:00:35.611Z,89.78
2018-09-24T05:03:11.662Z,89.85
2018-09-24T05:05:47.488Z,90.14
2018-09-24T05:08:28.482Z,89.85
2018-09-24T05:11:04.864Z,90.06
2018-09-24T05:13:40.168Z,90.16
2018-09-24T05:16:15.023Z,90.12
2018-09-24T05:18:51.565Z,89.83
2018-09-24T05:21:28.518Z,90.23
2018-09-24T05:24:03.468Z,90.08
2018-09-24T05:26:38.538Z,90.33
2018-09-24T05:29:15.021Z,90.19
2018-09-24T05:31:50.405Z,90.54
2018-09-24T05:34:29.810Z,90.63
2018-09-24T05:37:04.139Z,90.87
2018-09-24T05:39:41.985Z,90.61
2018-09-24T05:42:17.941Z,90.29
2018-09-24T05:44:54.878Z,90.27
2018-09-24T05:47:30.466Z,90.34
2018-09-24T05:50:05.914Z,90.18
2018-09-24T05:52:40.785Z,90.21
2018-09-24T05:55:15.936Z,90.23
2018-09-24T05:57:50.510Z,90.05
2018-09-24T06:00:27.819Z,90.26
2018-09-24T06:03:02.133Z,90.05
2018-09-24T06:05:36.902Z,89.57
2018-09-24T06:08:12.199Z,89.84
2018-09-24T06:10:49.024Z,89.89
2018-09-24T06:13:24.617Z,89.83
2018-09-24T06:15:59.938Z,89.61
2018-09-24T06:18:34.846Z,88.86
2018-09-24T06:21:09.071Z,88.75
2018-09-24T06:23:43.205Z,88.38
2018-09-24T06:26:18.070Z,87.71
2018-09-24T06:28:52.452Z,87.56
2018-09-24T06:31:29.986Z,87.12
2018-09-24T06:34:06.048Z,86.79
2018-09-24T06:36:41.796Z,86.56
2018-09-24T06:39:17.321Z,86.28
2018-09-24T06:41:55.300Z,85.82
2018-09-24T06:44:29.035Z,85.95
2018-09-24T06:47:04.577Z,85.52
2018-09-24T06:49:39.567Z,85.75
2018-09-24T06:52:16.968Z,84.36
2018-09-24T06:54:51.159Z,84.83
2018-09-24T06:57:26.672Z,84.42
2018-09-24T07:00:01.163Z,84.70
2018-09-24T07:02:37.094Z,84.20
2018-09-24T07:05:11.657Z,83.75
2018-09-24T07:07:47.295Z,83.48
2018-09-24T07:10:23.734Z,82.81
2018-09-24T07:12:58.589Z,83.82
2018-09-24T07:15:34.932Z,83.26
2018-09-24T07:18:10.064Z,82.38
2018-09-24T07:20:48.396Z,81.59
2018-09-24T07:23:24.751Z,81.98
2018-09-24T07:26:03.839Z,82.45
2018-09-24T07:28:38.340Z,82.38
2018-09-24T07:31:13.133Z,82.85
2018-09-24T07:33:49.577Z,82.36
2018-09-24T07:36:23.580Z,82.38
2018-09-24T07:38:58.130Z,79.71
2018-09-24T07:41:32.759Z,80.02
2018-09-24T07:44:08.720Z,80.36
2018-09-24T07:46:42.797Z,78.94
2018-09-24T07:49:18.841Z,80.03
2018-09-24T07:51:54.352Z,79.31
2018-09-24T07:54:30.800Z,77.95
2018-09-24T07:57:05.698Z,77.63
2018-09-24T07:59:48.447Z,75.01
2018-09-24T08:02:24.110Z,74.87
2018-09-24T08:04:59.654Z,74.55
2018-09-24T08:07:35.093Z,74.13
2018-09-24T08:10:11.778Z,75.06
2018-09-24T08:12:48.627Z,76.35
2018-09-24T08:15:23.358Z,75.18
2018-09-24T08:17:59.383Z,72.88
2018-09-24T08:20:34.447Z,73.66
2018-09-24T08:23:11.060Z,73.99
2018-09-24T08:25:47.504Z,73.36
2018-09-24T08:28:23.953Z,70.97
2018-09-24T08:31:01.569Z,70.19
2018-09-24T08:33:37.824Z,70.22
2018-09-24T08:36:14.886Z,71.16
2018-09-24T08:38:49.676Z,69.87
2018-09-24T08:41:26.850Z,68.94
2018-09-24T08:44:02.765Z,68.41
2018-09-24T08:46:38.372Z,68.50
2018-09-24T08:49:13.484Z,67.48
2018-09-24T08:51:48.543Z,67.58
2018-09-24T08:54:26.145Z,65.72
2018-09-24T08:57:01.487Z,66.64
2018-09-24T08:59:36.992Z,66.52
2018-09-24T09:02:11.296Z,67.79
2018-09-24T09:04:46.381Z,65.85
2018-09-24T09:07:23.323Z,66.61
2018-09-24T09:09:58.419Z,64.24
2018-09-24T09:12:33.933Z,64.00
2018-09-24T09:15:09.787Z,64.55
2018-09-24T09:17:47.092Z,61.77
2018-09-24T09:20:20.942Z,61.67
2018-09-24T09:22:55.690Z,63.68
2018-09-24T09:25:31.318Z,61.48
2018-09-24T09:28:06.136Z,59.35
2018-09-24T09:30:41.938Z,58.32
2018-09-24T09:33:16.252Z,59.09
2018-09-24T09:35:53.085Z,59.78
2018-09-24T09:38:28.744Z,58.98
2018-09-24T09:41:04.020Z,60.11
2018-09-24T09:43:39.544Z,57.39
2018-09-24T09:46:13.909Z,56.08
2018-09-24T09:48:49.432Z,55.22
2018-09-24T09:51:24.117Z,55.67
2018-09-24T09:53:58.746Z,56.02
2018-09-24T09:56:33.941Z,55.72
2018-09-24T09:59:08.394Z,52.93
2018-09-24T10:01:42.775Z,53.56
2018-09-24T10:04:17.908Z,52.15
2018-09-24T10:06:53.873Z,52.37
2018-09-24T10:09:28.008Z,51.87
2018-09-24T10:12:02.322Z,52.17
2018-09-24T10:14:37.412Z,52.86
2018-09-24T10:17:12.492Z,52.24
2018-09-24T10:19:47.993Z,52.35
2018-09-24T10:22:23.445Z,51.34
2018-09-24T10:24:58.069Z,51.83
2018-09-24T10:27:32.910Z,52.38
2018-09-24T10:30:08.049Z,55.53
2018-09-24T10:32:42.550Z,55.76
2018-09-24T10:35:17.397Z,54.52
2018-09-24T10:37:52.860Z,54.92
2018-09-24T10:40:27.223Z,57.26
2018-09-24T10:43:02.308Z,57.20
2018-09-24T10:45:36.302Z,54.19
2018-09-24T10:48:10.570Z,54.12
2018-09-24T10:50:46.332Z,52.29
2018-09-24T10:53:21.197Z,50.54
2018-09-24T10:55:56.496Z,50.46
2018-09-24T10:58:32.221Z,50.17
2018-09-24T11:01:06.905Z,50.09
2018-09-24T11:03:44.880Z,50.53
2018-09-24T11:06:19.140Z,49.59
2018-09-24T11:08:54.456Z,50.48
2018-09-24T11:11:29.716Z,50.90
2018-09-24T11:14:05.736Z,55.10
2018-09-24T11:16:43.896Z,60.82
2018-09-24T11:19:19.626Z,64.13
2018-09-24T11:21:54.593Z,65.65
2018-09-24T11:24:28.646Z,67.66
2018-09-24T11:27:03.981Z,64.46
2018-09-24T11:29:39.551Z,63.92
2018-09-24T11:32:14.507Z,61.89
2018-09-24T11:34:49.410Z,64.51
2018-09-24T11:37:24.503Z,55.97
2018-09-24T11:40:00.435Z,55.12
2018-09-24T11:42:36.069Z,54.48
2018-09-24T11:45:11.485Z,52.66
2018-09-24T11:47:45.521Z,54.07
2018-09-24T11:50:22.864Z,53.07
2018-09-24T11:52:57.693Z,54.12
2018-09-24T11:55:33.102Z,55.01
2018-09-24T11:58:10.489Z,57.18
2018-09-24T12:00:47.048Z,57.70
2018-09-24T12:03:21.925Z,58.42
2018-09-24T12:05:57.102Z,57.06
2018-09-24T12:08:32.383Z,53.53
2018-09-24T12:11:08.354Z,50.06
2018-09-24T12:13:43.316Z,50.68
2018-09-24T12:16:18.385Z,50.63
2018-09-24T12:18:53.110Z,50.35
2018-09-24T12:21:28.097Z,49.07
2018-09-24T12:24:02.639Z,48.82
2018-09-24T12:26:37.460Z,48.46
2018-09-24T12:29:12.348Z,48.85
2018-09-24T12:31:47.289Z,50.19
2018-09-24T12:34:21.436Z,48.16
2018-09-24T12:36:55.008Z,45.37
2018-09-24T12:39:30.644Z,46.43
2018-09-24T12:42:06.897Z,46.43
2018-09-24T12:44:42.237Z,46.29
2018-09-24T12:47:17.005Z,47.27
2018-09-24T12:49:53.888Z,45.23
2018-09-24T12:52:29.885Z,47.81
2018-09-24T12:55:04.339Z,47.13
2018-09-24T12:57:40.357Z,46.03
2018-09-24T13:00:14.797Z,45.22
2018-09-24T13:02:50.039Z,45.85
2018-09-24T13:05:24.251Z,44.90
2018-09-24T13:07:59.460Z,46.91
2018-09-24T13:10:34.324Z,46.07
2018-09-24T13:13:08.884Z,46.10
2018-09-24T13:15:43.905Z,43.96
2018-09-24T13:18:19.237Z,43.32
2018-09-24T13:20:54.348Z,44.75
2018-09-24T13:23:29.912Z,41.31
2018-09-24T13:26:03.814Z,43.03
2018-09-24T13:28:39.249Z,42.18
2018-09-24T13:31:14.716Z,42.08
2018-09-24T13:33:50.736Z,41.04
2018-09-24T13:36:25.121Z,40.93
2018-09-24T13:38:59.772Z,40.61
2018-09-24T13:41:34.065Z,39.37
2018-09-24T13:44:08.356Z,39.82
2018-09-24T13:46:43.271Z,39.53
2018-09-24T13:49:18.659Z,41.21
2018-09-24T13:51:52.862Z,42.36
2018-09-24T13:54:29.079Z,41.55
2018-09-24T13:57:03.394Z,41.08
2018-09-24T13:59:38.720Z,40.66
2018-09-24T14:02:13.424Z,41.31
2018-09-24T14:04:47.563Z,41.99
2018-09-24T14:07:21.574Z,42.43
2018-09-24T14:09:56.634Z,42.47
2018-09-24T14:12:32.393Z,41.43
2018-09-24T14:15:07.332Z,41.03
2018-09-24T14:17:42.632Z,41.20
2018-09-24T14:20:16.989Z,40.87
2018-09-24T14:22:51.732Z,41.71
2018-09-24T14:25:25.992Z,40.58
2018-09-24T14:28:00.848Z,41.04
2018-09-24T14:30:34.990Z,39.92
2018-09-24T14:33:09.686Z,40.06
2018-09-24T14:35:44.729Z,39.73
2018-09-24T14:38:20.099Z,39.99
2018-09-24T14:40:56.141Z,40.67
2018-09-24T14:43:31.124Z,42.38
2018-09-24T14:46:06.301Z,43.33
2018-09-24T14:48:41.332Z,44.53
2018-09-24T14:51:14.906Z,44.12
2018-09-24T14:53:54.600Z,43.86
2018-09-24T14:56:29.957Z,43.78
2018-09-24T14:59:05.872Z,43.37
2018-09-24T15:01:39.809Z,44.35
2018-09-24T15:04:16.373Z,44.42
2018-09-24T15:06:51.705Z,42.58
2018-09-24T15:09:27.162Z,41.57
2018-09-24T15:12:01.380Z,41.30
2018-09-24T15:14:36.228Z,44.54
2018-09-24T15:17:10.581Z,44.60
2018-09-24T15:19:45.382Z,44.59
2018-09-24T15:22:20.612Z,43.95
2018-09-24T15:24:56.049Z,43.44
2018-09-24T15:27:31.461Z,42.83
2018-09-24T15:30:07.350Z,42.49
2018-09-24T15:32:41.353Z,43.17
2018-09-24T15:35:16.558Z,44.34
2018-09-24T15:37:51.269Z,45.33
2018-09-24T15:40:25.912Z,45.91
2018-09-24T15:43:01.817Z,46.42
2018-09-24T15:45:37.311Z,47.43
2018-09-24T15:48:12.013Z,47.85
2018-09-24T15:50:47.114Z,48.27
2018-09-24T15:53:22.209Z,49.76
2018-09-24T15:55:57.454Z,50.46
2018-09-24T15:58:32.285Z,51.12
2018-09-24T16:01:08.005Z,51.25
2018-09-24T16:03:44.011Z,50.52
2018-09-24T16:06:18.869Z,49.28
2018-09-24T16:08:53.411Z,47.61
2018-09-24T16:11:27.951Z,43.91
2018-09-24T16:14:02.511Z,43.17
2018-09-24T16:16:37.196Z,42.38
2018-09-24T16:19:11.165Z,41.25
2018-09-24T16:21:46.822Z,40.30
2018-09-24T16:24:21.883Z,37.82
2018-09-24T16:26:57.481Z,38.67
2018-09-24T16:29:33.472Z,38.13
2018-09-24T16:32:08.824Z,37.92
2018-09-24T16:34:43.734Z,38.07
2018-09-24T16:37:18.737Z,38.82
2018-09-24T16:39:53.558Z,39.69
2018-09-24T16:42:29.797Z,41.13
2018-09-24T16:45:04.197Z,42.83
2018-09-24T16:47:39.173Z,44.21
2018-09-24T16:50:16.106Z,45.24
2018-09-24T16:52:49.993Z,46.15
2018-09-24T16:55:24.146Z,46.62
2018-09-24T16:57:58.501Z,48.39
2018-09-24T17:00:32.956Z,48.12
2018-09-24T17:03:07.096Z,49.07
2018-09-24T17:05:41.489Z,48.91
2018-09-24T17:08:16.916Z,49.65
2018-09-24T17:10:52.781Z,49.60
2018-09-24T17:13:28.545Z,49.64
2018-09-24T17:16:02.551Z,50.44
2018-09-24T17:18:44.654Z,50.22
2018-09-24T17:21:19.952Z,50.61
2018-09-24T17:23:54.650Z,51.31
2018-09-24T17:26:29.499Z,51.89
2018-09-24T17:29:03.895Z,51.13
2018-09-24T17:31:38.124Z,51.15
2018-09-24T17:34:12.777Z,51.73
2018-09-24T17:36:48.730Z,51.39
2018-09-24T17:39:24.981Z,54.78
2018-09-24T17:42:01.803Z,58.31
2018-09-24T17:44:36.034Z,59.52
2018-09-24T17:47:11.284Z,60.62
2018-09-24T17:49:45.297Z,60.93
2018-09-24T17:52:19.460Z,60.46
2018-09-24T17:54:53.284Z,61.36
2018-09-24T17:57:27.036Z,62.53
2018-09-24T18:00:00.892Z,61.84
2018-09-24T18:02:35.485Z,61.96
2018-09-24T18:05:09.364Z,62.69
2018-09-24T18:07:44.424Z,62.73
2018-09-24T18:10:19.525Z,63.16
2018-09-24T18:12:53.453Z,63.57
2018-09-24T18:15:28.008Z,63.24
2018-09-24T18:18:02.674Z,63.53
2018-09-24T18:20:36.867Z,64.07
2018-09-24T18:23:15.983Z,63.74
2018-09-24T18:25:50.760Z,64.10
2018-09-24T18:28:25.113Z,64.06
2018-09-24T18:31:00.357Z,63.83
2018-09-24T18:33:35.038Z,63.79
2018-09-24T18:36:09.475Z,64.08
2018-09-24T18:38:44.710Z,65.46
2018-09-24T18:41:18.952Z,65.75
2018-09-24T18:43:55.556Z,66.13
2018-09-24T18:46:30.482Z,66.80
2018-09-24T18:49:05.593Z,66.67
2018-09-24T18:51:41.032Z,66.83
2018-09-24T18:54:16.487Z,67.42
2018-09-24T18:56:50.239Z,68.02
2018-09-24T18:59:25.093Z,68.42
2018-09-24T19:01:59.064Z,68.54
2018-09-24T19:04:34.792Z,69.02
2018-09-24T19:07:09.237Z,69.30
2018-09-24T19:09:43.687Z,69.83
2018-09-24T19:12:19.298Z,70.18
2018-09-24T19:14:53.758Z,70.02
2018-09-24T19:17:29.234Z,70.12
2018-09-24T19:20:03.182Z,69.98
2018-09-24T19:22:41.361Z,70.27
2018-09-24T19:25:16.586Z,70.36
2018-09-24T19:27:51.198Z,70.86
2018-09-24T19:30:25.293Z,70.81
2018-09-24T19:32:59.611Z,70.66
2018-09-24T19:35:39.448Z,70.26
2018-09-24T19:38:14.105Z,70.49
2018-09-24T19:40:49.437Z,70.51
2018-09-24T19:43:24.176Z,70.31
2018-09-24T19:46:01.013Z,70.12
2018-09-24T19:48:36.725Z,70.73
2018-09-24T19:51:12.873Z,70.76
2018-09-24T19:53:47.551Z,70.67
2018-09-24T19:56:22.804Z,71.20
2018-09-24T19:58:57.989Z,71.06
2018-09-24T20:01:34.264Z,71.08
2018-09-24T20:04:09.025Z,71.68
2018-09-24T20:06:43.885Z,71.87
2018-09-24T20:09:19.209Z,72.70
2018-09-24T20:11:54.045Z,73.33
2018-09-24T20:14:28.751Z,74.43
2018-09-24T20:17:03.501Z,74.03
2018-09-24T20:19:38.163Z,73.95
2018-09-24T20:22:13.540Z,73.46
2018-09-24T20:24:47.937Z,73.38
2018-09-24T20:27:24.802Z,74.36
2018-09-24T20:29:58.565Z,74.76
2018-09-24T20:32:32.881Z,74.95
2018-09-24T20:35:07.130Z,75.31
2018-09-24T20:37:41.250Z,75.52
2018-09-24T20:40:16.029Z,75.76
2018-09-24T20:42:51.073Z,75.69
2018-09-24T20:45:25.200Z,76.29
2018-09-24T20:48:02.689Z,76.52
2018-09-24T20:50:38.049Z,76.55
2018-09-24T20:53:13.095Z,76.71
2018-09-24T20:55:47.468Z,77.08
2018-09-24T20:58:23.558Z,77.20
2018-09-24T21:00:58.326Z,77.19
2018-09-24T21:03:33.913Z,78.17
2018-09-24T21:06:08.848Z,77.90
2018-09-24T21:08:43.124Z,78.00
2018-09-24T21:11:16.746Z,77.80
2018-09-24T21:13:52.134Z,78.02
2018-09-24T21:16:27.014Z,78.04
2018-09-24T21:19:03.330Z,78.33
2018-09-24T21:21:38.655Z,78.82
2018-09-24T21:24:14.730Z,78.49
2018-09-24T21:26:49.465Z,78.79
2018-09-24T21:29:25.277Z,78.62
2018-09-24T21:32:00.042Z,78.49
2018-09-24T21:34:35.988Z,78.31
2018-09-24T21:37:09.756Z,78.71
2018-09-24T21:39:44.432Z,78.62
2018-09-24T21:42:19.099Z,78.77
2018-09-24T21:44:53.463Z,78.62
2018-09-24T21:47:27.475Z,78.64
2018-09-24T21:50:04.158Z,78.90
2018-09-24T21:52:38.682Z,79.58
2018-09-24T21:55:12.735Z,79.34
2018-09-24T21:57:47.489Z,79.22
2018-09-24T22:00:21.542Z,78.70
2018-09-24T22:02:56.731Z,78.43
2018-09-24T22:05:30.977Z,78.03
2018-09-24T22:08:07.149Z,78.26
2018-09-24T22:10:41.754Z,78.51
2018-09-24T22:13:16.169Z,78.43
2018-09-24T22:15:50.862Z,78.66
2018-09-24T22:18:24.919Z,78.98
2018-09-24T22:21:01.089Z,79.57
2018-09-24T22:23:35.701Z,79.61
2018-09-24T22:26:09.650Z,79.71
2018-09-24T22:28:44.197Z,79.41
2018-09-24T22:31:19.297Z,79.21
2018-09-24T22:33:55.437Z,79.57
2018-09-24T22:36:30.782Z,78.80
2018-09-24T22:39:04.949Z,78.82
2018-09-24T22:41:40.772Z,78.83
2018-09-24T22:44:15.825Z,79.37
2018-09-24T22:46:50.221Z,79.38
2018-09-24T22:49:27.276Z,79.47
2018-09-24T22:52:02.708Z,79.64
2018-09-24T22:54:37.067Z,79.65
2018-09-24T22:57:11.977Z,79.81
2018-09-24T22:59:46.461Z,80.54
2018-09-24T23:02:21.936Z,79.68
2018-09-24T23:04:56.390Z,79.83
2018-09-24T23:07:30.315Z,79.90
2018-09-24T23:10:05.709Z,79.84
2018-09-24T23:12:40.297Z,80.05
2018-09-24T23:15:14.858Z,79.93
2018-09-24T23:17:49.485Z,80.57
2018-09-24T23:20:23.466Z,80.90
2018-09-24T23:22:59.368Z,81.16
2018-09-24T23:25:34.000Z,81.46
2018-09-24T23:28:08.701Z,81.84
2018-09-24T23:30:43.238Z,82.38
2018-09-24T23:33:17.213Z,82.92
2018-09-24T23:35:52.516Z,82.90
2018-09-24T23:38:27.522Z,82.70
2018-09-24T23:41:01.945Z,82.39
2018-09-24T23:43:36.470Z,82.46
2018-09-24T23:46:11.302Z,82.65
2018-09-24T23:48:45.548Z,82.56
2018-09-24T23:51:20.337Z,82.13
2018-09-24T23:53:54.714Z,82.58
2018-09-24T23:56:28.818Z,82.86
2018-09-24T23:59:03.184Z,82.46
